sensor_id;sensor_type;location;lat;lon;timestamp;pressure;altitude;pressure_sealevel;temperature;humidity
9676;BME280;4876;42.656;23.292;2024-02-21T00:02:07;95030.13;;;4.95;73.19
9676;BME280;4876;42.656;23.292;2024-02-21T00:04:32;95027.56;;;5.05;72.69
9676;BME280;4876;42.656;23.292;2024-02-21T00:06:58;95029.38;;;5.02;72.44
9676;BME280;4876;42.656;23.292;2024-02-21T00:09:24;95034.16;;;4.94;72.37
9676;BME280;4876;42.656;23.292;2024-02-21T00:11:49;95028.09;;;4.80;73.15
9676;BME280;4876;42.656;23.292;2024-02-21T00:14:15;95027.19;;;4.93;72.83
9676;BME280;4876;42.656;23.292;2024-02-21T00:16:41;95031.22;;;4.92;72.78
9676;BME280;4876;42.656;23.292;2024-02-21T00:19:06;95030.47;;;4.99;72.82
9676;BME280;4876;42.656;23.292;2024-02-21T00:21:32;95031.22;;;4.92;72.87
9676;BME280;4876;42.656;23.292;2024-02-21T00:23:57;95017.28;;;4.90;72.35
9676;BME280;4876;42.656;23.292;2024-02-21T00:26:23;95015.81;;;4.89;71.61
9676;BME280;4876;42.656;23.292;2024-02-21T00:28:48;95022.78;;;5.05;72.48
9676;BME280;4876;42.656;23.292;2024-02-21T00:31:14;95023.88;;;5.02;72.25
9676;BME280;4876;42.656;23.292;2024-02-21T00:33:39;95026.06;;;4.96;72.39
9676;BME280;4876;42.656;23.292;2024-02-21T00:36:05;95020.06;;;4.98;72.63
9676;BME280;4876;42.656;23.292;2024-02-21T00:38:30;95030.66;;;4.93;72.32
9676;BME280;4876;42.656;23.292;2024-02-21T00:40:56;95023.16;;;5.02;72.25
9676;BME280;4876;42.656;23.292;2024-02-21T00:43:22;95023.72;;;5.00;72.60
9676;BME280;4876;42.656;23.292;2024-02-21T00:45:50;95024.25;;;5.14;71.50
9676;BME280;4876;42.656;23.292;2024-02-21T00:48:16;95013.44;;;5.08;71.75
9676;BME280;4876;42.656;23.292;2024-02-21T00:50:41;95012.16;;;4.94;71.67
9676;BME280;4876;42.656;23.292;2024-02-21T00:53:07;95006.47;;;4.92;72.82
9676;BME280;4876;42.656;23.292;2024-02-21T00:55:32;95010.50;;;4.99;73.06
9676;BME280;4876;42.656;23.292;2024-02-21T00:57:58;95011.59;;;4.95;72.91
9676;BME280;4876;42.656;23.292;2024-02-21T01:00:23;95001.91;;;5.02;72.28
9676;BME280;4876;42.656;23.292;2024-02-21T01:02:49;94992.34;;;4.95;72.26
9676;BME280;4876;42.656;23.292;2024-02-21T01:05:15;95002.81;;;4.82;74.29
9676;BME280;4876;42.656;23.292;2024-02-21T01:07:40;94999.69;;;4.78;73.50
9676;BME280;4876;42.656;23.292;2024-02-21T01:10:06;94987.22;;;4.77;73.87
9676;BME280;4876;42.656;23.292;2024-02-21T01:12:32;94990.88;;;4.72;73.62
9676;BME280;4876;42.656;23.292;2024-02-21T01:14:57;94987.38;;;4.64;73.61
9676;BME280;4876;42.656;23.292;2024-02-21T01:17:23;94985.78;;;4.76;72.74
9676;BME280;4876;42.656;23.292;2024-02-21T01:19:48;94981.53;;;4.82;73.48
9676;BME280;4876;42.656;23.292;2024-02-21T01:22:14;94991.66;;;4.95;73.00
9676;BME280;4876;42.656;23.292;2024-02-21T01:24:41;94984.31;;;4.98;71.82
9676;BME280;4876;42.656;23.292;2024-02-21T01:27:06;94988.50;;;5.06;71.79
9676;BME280;4876;42.656;23.292;2024-02-21T01:29:32;94981.56;;;5.05;71.73
9676;BME280;4876;42.656;23.292;2024-02-21T01:31:57;94980.66;;;4.95;71.06
9676;BME280;4876;42.656;23.292;2024-02-21T01:34:23;94976.06;;;4.98;72.01
9676;BME280;4876;42.656;23.292;2024-02-21T01:36:49;94974.41;;;4.87;71.07
9676;BME280;4876;42.656;23.292;2024-02-21T01:39:14;94973.84;;;4.96;71.54
9676;BME280;4876;42.656;23.292;2024-02-21T01:41:40;94975.13;;;5.10;70.78
9676;BME280;4876;42.656;23.292;2024-02-21T01:44:05;94973.31;;;5.05;70.47
9676;BME280;4876;42.656;23.292;2024-02-21T01:46:31;94974.97;;;5.08;70.08
9676;BME280;4876;42.656;23.292;2024-02-21T01:48:57;94968.53;;;5.13;70.27
9676;BME280;4876;42.656;23.292;2024-02-21T01:51:23;94968.88;;;5.17;70.05
9676;BME280;4876;42.656;23.292;2024-02-21T01:53:50;94964.69;;;5.09;71.12
9676;BME280;4876;42.656;23.292;2024-02-21T01:56:17;94965.44;;;4.94;70.50
9676;BME280;4876;42.656;23.292;2024-02-21T01:58:43;94973.31;;;4.98;71.02
9676;BME280;4876;42.656;23.292;2024-02-21T02:01:12;94958.28;;;4.91;70.32
9676;BME280;4876;42.656;23.292;2024-02-21T02:03:37;94963.94;;;5.16;70.16
9676;BME280;4876;42.656;23.292;2024-02-21T02:06:05;94964.16;;;5.03;70.10
9676;BME280;4876;42.656;23.292;2024-02-21T02:08:31;94966.50;;;5.06;69.20
9676;BME280;4876;42.656;23.292;2024-02-21T02:10:57;94958.47;;;5.08;69.92
9676;BME280;4876;42.656;23.292;2024-02-21T02:13:23;94963.25;;;5.00;70.11
9676;BME280;4876;42.656;23.292;2024-02-21T02:15:49;94959.00;;;4.99;69.56
9676;BME280;4876;42.656;23.292;2024-02-21T02:18:16;94941.03;;;4.98;69.94
9676;BME280;4876;42.656;23.292;2024-02-21T02:20:43;94960.09;;;4.96;70.82
9676;BME280;4876;42.656;23.292;2024-02-21T02:23:30;94958.28;;;4.83;70.29
9676;BME280;4876;42.656;23.292;2024-02-21T02:25:59;94949.13;;;4.96;69.99
9676;BME280;4876;42.656;23.292;2024-02-21T02:28:26;94946.91;;;5.02;69.70
9676;BME280;4876;42.656;23.292;2024-02-21T02:30:52;94943.06;;;5.05;70.09
9676;BME280;4876;42.656;23.292;2024-02-21T02:33:18;94945.44;;;5.09;69.39
9676;BME280;4876;42.656;23.292;2024-02-21T02:35:44;94947.44;;;5.23;69.22
9676;BME280;4876;42.656;23.292;2024-02-21T02:38:10;94944.50;;;5.14;69.79
9676;BME280;4876;42.656;23.292;2024-02-21T02:40:37;94943.59;;;5.11;69.66
9676;BME280;4876;42.656;23.292;2024-02-21T02:43:03;94944.34;;;5.12;69.76
9676;BME280;4876;42.656;23.292;2024-02-21T02:45:29;94933.72;;;4.93;70.02
9676;BME280;4876;42.656;23.292;2024-02-21T02:47:55;94939.75;;;5.07;69.66
9676;BME280;4876;42.656;23.292;2024-02-21T02:50:25;94936.28;;;5.06;69.35
9676;BME280;4876;42.656;23.292;2024-02-21T02:52:52;94943.97;;;5.08;68.93
9676;BME280;4876;42.656;23.292;2024-02-21T02:55:17;94943.25;;;5.07;70.24
9676;BME280;4876;42.656;23.292;2024-02-21T02:57:43;94939.59;;;5.05;69.23
9676;BME280;4876;42.656;23.292;2024-02-21T03:00:10;94951.13;;;4.80;70.90
9676;BME280;4876;42.656;23.292;2024-02-21T03:02:38;94949.88;;;4.81;70.98
9676;BME280;4876;42.656;23.292;2024-02-21T03:05:17;94944.34;;;5.04;70.08
9676;BME280;4876;42.656;23.292;2024-02-21T03:07:43;94946.34;;;5.11;69.55
9676;BME280;4876;42.656;23.292;2024-02-21T03:10:09;94946.34;;;5.11;70.04
9676;BME280;4876;42.656;23.292;2024-02-21T03:12:35;94945.06;;;5.20;68.85
9676;BME280;4876;42.656;23.292;2024-02-21T03:15:01;94947.28;;;4.99;70.20
9676;BME280;4876;42.656;23.292;2024-02-21T03:17:27;94952.78;;;4.91;69.11
9676;BME280;4876;42.656;23.292;2024-02-21T03:19:53;94963.25;;;5.00;69.26
9676;BME280;4876;42.656;23.292;2024-02-21T03:22:20;94955.34;;;5.04;69.90
9676;BME280;4876;42.656;23.292;2024-02-21T03:24:46;94963.41;;;5.02;69.78
9676;BME280;4876;42.656;23.292;2024-02-21T03:27:11;94961.19;;;5.01;69.06
9676;BME280;4876;42.656;23.292;2024-02-21T03:29:37;94964.16;;;4.95;69.35
9676;BME280;4876;42.656;23.292;2024-02-21T03:32:03;94966.34;;;4.89;69.74
9676;BME280;4876;42.656;23.292;2024-02-21T03:34:29;94957.19;;;4.94;69.97
9676;BME280;4876;42.656;23.292;2024-02-21T03:36:54;94966.16;;;5.02;69.26
9676;BME280;4876;42.656;23.292;2024-02-21T03:39:20;94963.22;;;4.92;70.88
9676;BME280;4876;42.656;23.292;2024-02-21T03:41:47;94958.66;;;4.95;70.12
9676;BME280;4876;42.656;23.292;2024-02-21T03:44:12;94973.66;;;5.02;70.45
9676;BME280;4876;42.656;23.292;2024-02-21T03:46:38;94979.16;;;5.02;68.71
9676;BME280;4876;42.656;23.292;2024-02-21T03:49:03;94981.75;;;5.00;69.39
9676;BME280;4876;42.656;23.292;2024-02-21T03:51:29;94970.38;;;4.95;69.29
9676;BME280;4876;42.656;23.292;2024-02-21T03:53:54;94972.19;;;4.93;69.02
9676;BME280;4876;42.656;23.292;2024-02-21T03:56:20;94978.81;;;5.05;68.69
9676;BME280;4876;42.656;23.292;2024-02-21T03:58:45;94972.00;;;5.06;69.12
9676;BME280;4876;42.656;23.292;2024-02-21T04:01:11;94971.47;;;4.92;70.39
9676;BME280;4876;42.656;23.292;2024-02-21T04:03:37;94980.09;;;4.97;69.07
9676;BME280;4876;42.656;23.292;2024-02-21T04:06:03;94977.53;;;4.91;70.13
9676;BME280;4876;42.656;23.292;2024-02-21T04:08:29;94974.78;;;4.91;69.27
9676;BME280;4876;42.656;23.292;2024-02-21T04:10:54;94970.19;;;4.86;69.82
9676;BME280;4876;42.656;23.292;2024-02-21T04:13:20;94972.94;;;4.86;70.78
9676;BME280;4876;42.656;23.292;2024-02-21T04:15:45;94965.78;;;4.83;70.62
9676;BME280;4876;42.656;23.292;2024-02-21T04:18:11;94970.00;;;4.99;70.80
9676;BME280;4876;42.656;23.292;2024-02-21T04:20:36;94963.22;;;4.85;69.48
9676;BME280;4876;42.656;23.292;2024-02-21T04:23:02;94957.56;;;4.83;70.04
9676;BME280;4876;42.656;23.292;2024-02-21T04:25:27;94969.47;;;4.78;69.81
9676;BME280;4876;42.656;23.292;2024-02-21T04:27:53;94966.88;;;4.72;70.15
9676;BME280;4876;42.656;23.292;2024-02-21T04:30:18;94968.53;;;4.75;70.39
9676;BME280;4876;42.656;23.292;2024-02-21T04:32:44;94974.78;;;4.68;70.44
9676;BME280;4876;42.656;23.292;2024-02-21T04:35:10;94963.22;;;4.77;69.42
9676;BME280;4876;42.656;23.292;2024-02-21T04:37:35;94969.81;;;4.59;70.13
9676;BME280;4876;42.656;23.292;2024-02-21T04:40:01;94969.41;;;4.32;72.69
9676;BME280;4876;42.656;23.292;2024-02-21T04:42:27;94975.47;;;4.39;72.62
9676;BME280;4876;42.656;23.292;2024-02-21T04:44:52;94970.88;;;4.33;72.60
9676;BME280;4876;42.656;23.292;2024-02-21T04:47:18;94970.72;;;4.47;72.26
9676;BME280;4876;42.656;23.292;2024-02-21T04:49:45;94969.06;;;4.51;72.10
9676;BME280;4876;42.656;23.292;2024-02-21T04:52:11;94972.19;;;4.48;72.56
9676;BME280;4876;42.656;23.292;2024-02-21T04:54:37;94976.03;;;4.60;72.53
9676;BME280;4876;42.656;23.292;2024-02-21T04:57:02;94980.63;;;4.50;71.42
9676;BME280;4876;42.656;23.292;2024-02-21T04:59:28;94974.78;;;4.68;75.68
9676;BME280;4876;42.656;23.292;2024-02-21T05:01:54;94970.38;;;4.80;73.37
9676;BME280;4876;42.656;23.292;2024-02-21T05:04:20;94970.38;;;4.73;71.14
9676;BME280;4876;42.656;23.292;2024-02-21T05:06:45;94974.03;;;4.90;71.14
9676;BME280;4876;42.656;23.292;2024-02-21T05:09:12;94972.94;;;4.86;70.31
9676;BME280;4876;42.656;23.292;2024-02-21T05:11:37;94977.69;;;4.70;71.04
9676;BME280;4876;42.656;23.292;2024-02-21T05:14:03;94978.44;;;4.63;71.09
9676;BME280;4876;42.656;23.292;2024-02-21T05:16:30;94979.69;;;4.55;70.44
9676;BME280;4876;42.656;23.292;2024-02-21T05:18:55;94993.63;;;4.64;69.53
9676;BME280;4876;42.656;23.292;2024-02-21T05:21:23;94987.75;;;4.53;70.52
9676;BME280;4876;42.656;23.292;2024-02-21T05:23:49;94982.28;;;4.53;69.84
9676;BME280;4876;42.656;23.292;2024-02-21T05:26:25;94986.13;;;4.57;68.81
9676;BME280;4876;42.656;23.292;2024-02-21T05:28:51;94982.44;;;4.62;69.35
9676;BME280;4876;42.656;23.292;2024-02-21T05:31:20;94987.94;;;4.70;68.25
9676;BME280;4876;42.656;23.292;2024-02-21T05:33:46;94989.03;;;4.67;68.69
9676;BME280;4876;42.656;23.292;2024-02-21T05:36:13;94976.97;;;4.77;69.40
9676;BME280;4876;42.656;23.292;2024-02-21T05:38:38;94978.06;;;4.74;68.92
9676;BME280;4876;42.656;23.292;2024-02-21T05:41:04;94977.34;;;4.89;67.88
9676;BME280;4876;42.656;23.292;2024-02-21T05:43:30;94984.50;;;4.92;68.67
9676;BME280;4876;42.656;23.292;2024-02-21T05:45:56;94994.19;;;4.85;68.06
9676;BME280;4876;42.656;23.292;2024-02-21T05:48:22;94985.78;;;4.91;67.76
9676;BME280;4876;42.656;23.292;2024-02-21T05:50:48;94989.44;;;4.93;67.96
9676;BME280;4876;42.656;23.292;2024-02-21T05:53:13;94989.44;;;4.93;68.53
9676;BME280;4876;42.656;23.292;2024-02-21T05:55:39;95005.91;;;5.09;66.76
9676;BME280;4876;42.656;23.292;2024-02-21T05:58:05;94994.72;;;5.14;66.68
9676;BME280;4876;42.656;23.292;2024-02-21T06:00:48;95002.06;;;5.42;66.78
9676;BME280;4876;42.656;23.292;2024-02-21T06:03:20;95008.47;;;5.37;66.79
9676;BME280;4876;42.656;23.292;2024-02-21T06:05:51;95009.75;;;5.36;66.70
9676;BME280;4876;42.656;23.292;2024-02-21T06:08:16;95012.31;;;5.41;65.56
9676;BME280;4876;42.656;23.292;2024-02-21T06:10:42;95011.03;;;5.50;64.83
9676;BME280;4876;42.656;23.292;2024-02-21T06:13:17;95015.44;;;5.38;65.27
9676;BME280;4876;42.656;23.292;2024-02-21T06:15:46;95021.09;;;5.63;64.77
9676;BME280;4876;42.656;23.292;2024-02-21T06:18:17;95012.97;;;5.80;65.02
9676;BME280;4876;42.656;23.292;2024-02-21T06:20:48;95019.19;;;5.88;64.55
9676;BME280;4876;42.656;23.292;2024-02-21T06:23:16;95028.09;;;6.19;64.89
9676;BME280;4876;42.656;23.292;2024-02-21T06:25:42;95022.31;;;6.39;62.57
9676;BME280;4876;42.656;23.292;2024-02-21T06:28:21;95018.94;;;6.16;63.70
9676;BME280;4876;42.656;23.292;2024-02-21T06:30:46;95016.69;;;6.22;63.99
9676;BME280;4876;42.656;23.292;2024-02-21T06:33:12;95028.06;;;6.26;64.15
9676;BME280;4876;42.656;23.292;2024-02-21T06:35:38;95024.47;;;6.48;62.72
9676;BME280;4876;42.656;23.292;2024-02-21T06:38:06;95030.06;;;6.33;62.99
9676;BME280;4876;42.656;23.292;2024-02-21T06:40:32;95024.03;;;6.20;63.86
9676;BME280;4876;42.656;23.292;2024-02-21T06:43:03;95035.31;;;6.46;62.89
9676;BME280;4876;42.656;23.292;2024-02-21T06:45:29;95033.72;;;6.36;62.96
9676;BME280;4876;42.656;23.292;2024-02-21T06:47:54;95039.38;;;6.45;62.59
9676;BME280;4876;42.656;23.292;2024-02-21T06:50:20;95046.69;;;6.50;62.05
9676;BME280;4876;42.656;23.292;2024-02-21T06:52:46;95043.47;;;6.69;62.62
9676;BME280;4876;42.656;23.292;2024-02-21T06:55:11;95059.44;;;6.70;62.58
9676;BME280;4876;42.656;23.292;2024-02-21T06:57:37;95056.06;;;6.79;62.66
9676;BME280;4876;42.656;23.292;2024-02-21T07:00:02;95045.28;;;6.74;62.52
9676;BME280;4876;42.656;23.292;2024-02-21T07:02:28;95046.88;;;6.85;61.74
9676;BME280;4876;42.656;23.292;2024-02-21T07:04:53;95056.06;;;6.79;61.40
9676;BME280;4876;42.656;23.292;2024-02-21T07:07:19;95045.13;;;6.97;62.00
9676;BME280;4876;42.656;23.292;2024-02-21T07:09:44;95049.91;;;6.96;60.92
9676;BME280;4876;42.656;23.292;2024-02-21T07:12:11;95051.56;;;6.99;60.96
9676;BME280;4876;42.656;23.292;2024-02-21T07:14:37;95049.38;;;6.98;60.94
9676;BME280;4876;42.656;23.292;2024-02-21T07:17:02;95055.03;;;7.00;60.77
9676;BME280;4876;42.656;23.292;2024-02-21T07:19:28;95054.34;;;6.92;62.32
9676;BME280;4876;42.656;23.292;2024-02-21T07:21:54;95050.88;;;6.91;62.39
9676;BME280;4876;42.656;23.292;2024-02-21T07:24:19;95052.59;;;6.79;62.78
9676;BME280;4876;42.656;23.292;2024-02-21T07:26:45;95054.66;;;6.71;62.85
9676;BME280;4876;42.656;23.292;2024-02-21T07:29:11;95061.34;;;6.93;62.28
9676;BME280;4876;42.656;23.292;2024-02-21T07:31:43;95062.00;;;7.01;61.18
9676;BME280;4876;42.656;23.292;2024-02-21T07:34:09;95053.03;;;7.00;61.75
9676;BME280;4876;42.656;23.292;2024-02-21T07:36:34;95062.59;;;6.99;62.49
9676;BME280;4876;42.656;23.292;2024-02-21T07:39:00;95064.59;;;6.99;62.42
9676;BME280;4876;42.656;23.292;2024-02-21T07:41:26;95053.56;;;6.99;62.37
9676;BME280;4876;42.656;23.292;2024-02-21T07:43:52;95052.44;;;7.02;61.69
9676;BME280;4876;42.656;23.292;2024-02-21T07:46:18;95056.94;;;6.90;63.19
9676;BME280;4876;42.656;23.292;2024-02-21T07:48:45;95063.00;;;6.88;63.10
9676;BME280;4876;42.656;23.292;2024-02-21T07:51:11;95062.97;;;6.96;62.60
9676;BME280;4876;42.656;23.292;2024-02-21T07:53:38;95055.72;;;7.08;62.84
9676;BME280;4876;42.656;23.292;2024-02-21T07:56:04;95055.78;;;7.25;61.48
9676;BME280;4876;42.656;23.292;2024-02-21T07:58:30;95053.41;;;7.46;61.02
9676;BME280;4876;42.656;23.292;2024-02-21T08:00:55;95050.97;;;7.50;60.82
9676;BME280;4876;42.656;23.292;2024-02-21T08:03:21;95046.13;;;7.75;60.05
9676;BME280;4876;42.656;23.292;2024-02-21T08:05:46;95050.19;;;7.57;60.03
9676;BME280;4876;42.656;23.292;2024-02-21T08:08:12;95054.88;;;7.47;61.18
9676;BME280;4876;42.656;23.292;2024-02-21T08:10:43;95054.66;;;7.70;60.17
9676;BME280;4876;42.656;23.292;2024-02-21T08:13:09;95048.25;;;8.01;59.70
9676;BME280;4876;42.656;23.292;2024-02-21T08:15:34;95051.38;;;8.06;60.13
9676;BME280;4876;42.656;23.292;2024-02-21T08:18:00;95055.59;;;8.24;59.14
9676;BME280;4876;42.656;23.292;2024-02-21T08:20:27;95052.97;;;8.43;58.36
9676;BME280;4876;42.656;23.292;2024-02-21T08:22:52;95046.13;;;8.61;57.54
9676;BME280;4876;42.656;23.292;2024-02-21T08:25:18;95046.81;;;8.79;57.40
9676;BME280;4876;42.656;23.292;2024-02-21T08:27:44;95044.94;;;8.81;57.21
9676;BME280;4876;42.656;23.292;2024-02-21T08:30:11;95037.50;;;8.84;56.78
9676;BME280;4876;42.656;23.292;2024-02-21T08:32:40;95043.25;;;8.69;56.16
9676;BME280;4876;42.656;23.292;2024-02-21T08:35:06;95046.75;;;8.69;56.72
9676;BME280;4876;42.656;23.292;2024-02-21T08:37:31;95040.22;;;8.47;56.90
9676;BME280;4876;42.656;23.292;2024-02-21T08:39:57;95043.66;;;8.65;56.12
9676;BME280;4876;42.656;23.292;2024-02-21T08:42:22;95049.41;;;8.50;55.15
9676;BME280;4876;42.656;23.292;2024-02-21T08:44:49;95041.50;;;8.46;55.13
9676;BME280;4876;42.656;23.292;2024-02-21T08:47:14;95046.03;;;8.51;55.30
9676;BME280;4876;42.656;23.292;2024-02-21T08:49:40;95053.19;;;8.54;53.51
9676;BME280;4876;42.656;23.292;2024-02-21T08:52:06;95045.09;;;8.39;54.90
9676;BME280;4876;42.656;23.292;2024-02-21T08:54:32;95047.13;;;8.39;54.51
9676;BME280;4876;42.656;23.292;2024-02-21T08:57:00;95048.78;;;8.69;54.53
9676;BME280;4876;42.656;23.292;2024-02-21T08:59:26;95045.44;;;8.70;54.50
9676;BME280;4876;42.656;23.292;2024-02-21T09:01:52;95044.59;;;8.77;54.32
9676;BME280;4876;42.656;23.292;2024-02-21T09:04:20;95045.59;;;8.99;54.01
9676;BME280;4876;42.656;23.292;2024-02-21T09:06:46;95051.19;;;8.55;55.41
9676;BME280;4876;42.656;23.292;2024-02-21T09:09:12;95058.59;;;8.52;56.66
9676;BME280;4876;42.656;23.292;2024-02-21T09:11:37;95059.47;;;8.38;56.73
9676;BME280;4876;42.656;23.292;2024-02-21T09:14:03;95054.44;;;8.61;56.50
9676;BME280;4876;42.656;23.292;2024-02-21T09:16:31;95064.28;;;8.37;56.60
9676;BME280;4876;42.656;23.292;2024-02-21T09:18:57;95062.22;;;8.55;56.29
9676;BME280;4876;42.656;23.292;2024-02-21T09:21:23;95061.03;;;8.75;55.51
9676;BME280;4876;42.656;23.292;2024-02-21T09:23:49;95054.44;;;8.61;55.00
9676;BME280;4876;42.656;23.292;2024-02-21T09:26:14;95049.41;;;8.77;54.63
9676;BME280;4876;42.656;23.292;2024-02-21T09:28:42;95049.59;;;9.15;53.49
9676;BME280;4876;42.656;23.292;2024-02-21T09:31:08;95049.72;;;8.81;53.84
9676;BME280;4876;42.656;23.292;2024-02-21T09:33:33;95054.28;;;8.42;55.58
9676;BME280;4876;42.656;23.292;2024-02-21T09:35:59;95059.41;;;8.45;56.12
9676;BME280;4876;42.656;23.292;2024-02-21T09:38:25;95052.44;;;8.71;55.53
9676;BME280;4876;42.656;23.292;2024-02-21T09:41:00;95047.00;;;8.90;54.34
9676;BME280;4876;42.656;23.292;2024-02-21T09:43:29;95048.97;;;9.07;53.50
9676;BME280;4876;42.656;23.292;2024-02-21T09:45:55;95053.16;;;8.98;53.31
9676;BME280;4876;42.656;23.292;2024-02-21T09:48:38;95062.81;;;8.80;55.88
9676;BME280;4876;42.656;23.292;2024-02-21T09:51:09;95065.25;;;8.15;57.57
9676;BME280;4876;42.656;23.292;2024-02-21T09:53:38;95056.81;;;8.13;58.88
9676;BME280;4876;42.656;23.292;2024-02-21T09:56:07;95055.72;;;7.74;60.28
9676;BME280;4876;42.656;23.292;2024-02-21T09:58:33;95055.09;;;8.00;58.25
9676;BME280;4876;42.656;23.292;2024-02-21T10:01:00;95056.00;;;8.03;58.55
9676;BME280;4876;42.656;23.292;2024-02-21T10:03:25;95048.81;;;8.17;57.10
9676;BME280;4876;42.656;23.292;2024-02-21T10:06:10;95050.00;;;8.31;56.75
9676;BME280;4876;42.656;23.292;2024-02-21T10:08:35;95050.69;;;8.49;54.80
9676;BME280;4876;42.656;23.292;2024-02-21T10:11:01;95042.72;;;8.53;54.30
9676;BME280;4876;42.656;23.292;2024-02-21T10:13:29;95049.41;;;8.50;53.98
9676;BME280;4876;42.656;23.292;2024-02-21T10:16:04;95050.03;;;8.58;54.02
9676;BME280;4876;42.656;23.292;2024-02-21T10:18:30;95036.25;;;8.68;54.07
9676;BME280;4876;42.656;23.292;2024-02-21T10:21:08;95029.47;;;9.05;51.63
9676;BME280;4876;42.656;23.292;2024-02-21T10:23:48;95027.22;;;8.94;52.71
9676;BME280;4876;42.656;23.292;2024-02-21T10:26:16;95026.38;;;9.01;52.51
9676;BME280;4876;42.656;23.292;2024-02-21T10:28:42;95025.31;;;8.87;53.21
9676;BME280;4876;42.656;23.292;2024-02-21T10:31:10;95013.72;;;8.71;53.69
9676;BME280;4876;42.656;23.292;2024-02-21T10:33:37;95013.81;;;8.90;53.05
9676;BME280;4876;42.656;23.292;2024-02-21T10:36:09;95007.81;;;9.20;51.75
9676;BME280;4876;42.656;23.292;2024-02-21T10:38:39;94991.81;;;9.29;51.26
9676;BME280;4876;42.656;23.292;2024-02-21T10:41:07;94992.50;;;9.10;51.34
9676;BME280;4876;42.656;23.292;2024-02-21T10:43:40;94990.97;;;8.90;52.31
9676;BME280;4876;42.656;23.292;2024-02-21T10:46:07;94987.44;;;9.26;52.18
9676;BME280;4876;42.656;23.292;2024-02-21T10:48:42;94975.59;;;9.71;50.95
9676;BME280;4876;42.656;23.292;2024-02-21T10:51:18;94972.38;;;9.94;49.02
9676;BME280;4876;42.656;23.292;2024-02-21T10:53:50;94971.78;;;9.66;48.74
9676;BME280;4876;42.656;23.292;2024-02-21T10:56:29;94965.94;;;9.72;46.73
9676;BME280;4876;42.656;23.292;2024-02-21T10:58:57;94958.78;;;9.50;47.86
9676;BME280;4876;42.656;23.292;2024-02-21T11:01:23;94969.16;;;9.97;47.04
9676;BME280;4876;42.656;23.292;2024-02-21T11:03:53;94967.41;;;9.82;47.28
9676;BME280;4876;42.656;23.292;2024-02-21T11:06:20;94960.84;;;9.68;48.32
9676;BME280;4876;42.656;23.292;2024-02-21T11:08:47;94954.44;;;10.04;47.55
9676;BME280;4876;42.656;23.292;2024-02-21T11:11:13;94947.03;;;10.16;46.80
9676;BME280;4876;42.656;23.292;2024-02-21T11:13:44;94944.28;;;10.57;43.69
9676;BME280;4876;42.656;23.292;2024-02-21T11:16:12;94951.31;;;10.58;43.83
9676;BME280;4876;42.656;23.292;2024-02-21T11:18:46;94963.13;;;10.58;44.52
9676;BME280;4876;42.656;23.292;2024-02-21T11:21:12;94949.16;;;10.37;44.25
9676;BME280;4876;42.656;23.292;2024-02-21T11:23:37;94957.34;;;10.35;44.51
9676;BME280;4876;42.656;23.292;2024-02-21T11:26:09;94946.97;;;10.35;44.55
9676;BME280;4876;42.656;23.292;2024-02-21T11:28:35;94946.00;;;10.21;45.38
9676;BME280;4876;42.656;23.292;2024-02-21T11:31:08;94941.59;;;10.37;44.52
9676;BME280;4876;42.656;23.292;2024-02-21T11:33:34;94946.84;;;10.14;45.08
9676;BME280;4876;42.656;23.292;2024-02-21T11:36:01;94943.47;;;10.06;45.65
9676;BME280;4876;42.656;23.292;2024-02-21T11:38:27;94937.97;;;10.16;46.47
9676;BME280;4876;42.656;23.292;2024-02-21T11:40:52;94935.63;;;9.93;46.11
9676;BME280;4876;42.656;23.292;2024-02-21T11:43:17;94930.97;;;10.24;46.07
9676;BME280;4876;42.656;23.292;2024-02-21T11:45:43;94932.69;;;10.20;45.61
9676;BME280;4876;42.656;23.292;2024-02-21T11:48:08;94931.38;;;10.02;45.60
9676;BME280;4876;42.656;23.292;2024-02-21T11:50:37;94932.69;;;10.10;45.89
9676;BME280;4876;42.656;23.292;2024-02-21T11:53:05;94925.13;;;10.20;45.95
9676;BME280;4876;42.656;23.292;2024-02-21T11:55:30;94921.78;;;10.22;45.50
9676;BME280;4876;42.656;23.292;2024-02-21T11:57:56;94924.81;;;10.07;45.61
9676;BME280;4876;42.656;23.292;2024-02-21T12:00:22;94925.72;;;9.80;45.60
9676;BME280;4876;42.656;23.292;2024-02-21T12:02:50;94926.56;;;9.45;46.75
9676;BME280;4876;42.656;23.292;2024-02-21T12:05:21;94921.06;;;9.64;46.89
9676;BME280;4876;42.656;23.292;2024-02-21T12:07:46;94920.31;;;9.63;46.55
9676;BME280;4876;42.656;23.292;2024-02-21T12:10:14;94921.31;;;9.49;46.51
9676;BME280;4876;42.656;23.292;2024-02-21T12:12:45;94912.97;;;9.20;47.35
9676;BME280;4876;42.656;23.292;2024-02-21T12:15:11;94909.47;;;9.19;47.63
9676;BME280;4876;42.656;23.292;2024-02-21T12:17:37;94913.28;;;9.34;47.71
9676;BME280;4876;42.656;23.292;2024-02-21T12:20:05;94909.66;;;9.41;48.01
9676;BME280;4876;42.656;23.292;2024-02-21T12:22:31;94907.75;;;9.24;48.42
9676;BME280;4876;42.656;23.292;2024-02-21T12:24:59;94907.03;;;9.23;48.39
9676;BME280;4876;42.656;23.292;2024-02-21T12:27:25;94902.91;;;9.05;48.53
9676;BME280;4876;42.656;23.292;2024-02-21T12:29:51;94896.88;;;8.80;49.35
9676;BME280;4876;42.656;23.292;2024-02-21T12:32:17;94902.44;;;8.90;48.97
9676;BME280;4876;42.656;23.292;2024-02-21T12:34:42;94900.81;;;8.87;49.01
9676;BME280;4876;42.656;23.292;2024-02-21T12:37:08;94897.88;;;8.75;49.36
9676;BME280;4876;42.656;23.292;2024-02-21T12:39:33;94889.50;;;8.92;48.71
9676;BME280;4876;42.656;23.292;2024-02-21T12:41:59;94894.69;;;8.88;48.44
9676;BME280;4876;42.656;23.292;2024-02-21T12:44:24;94887.00;;;8.96;48.09
9676;BME280;4876;42.656;23.292;2024-02-21T12:46:50;94896.47;;;8.93;49.00
9676;BME280;4876;42.656;23.292;2024-02-21T12:49:19;94891.94;;;8.88;49.69
9676;BME280;4876;42.656;23.292;2024-02-21T12:51:44;94889.78;;;8.96;50.22
9676;BME280;4876;42.656;23.292;2024-02-21T12:54:12;94875.94;;;8.96;50.54
9676;BME280;4876;42.656;23.292;2024-02-21T12:56:37;94875.66;;;9.11;50.82
9676;BME280;4876;42.656;23.292;2024-02-21T12:59:03;94882.41;;;9.18;50.88
9676;BME280;4876;42.656;23.292;2024-02-21T13:01:28;94884.00;;;9.31;50.68
9676;BME280;4876;42.656;23.292;2024-02-21T13:03:54;94878.03;;;9.34;50.33
9676;BME280;4876;42.656;23.292;2024-02-21T13:06:21;94875.56;;;9.57;49.32
9676;BME280;4876;42.656;23.292;2024-02-21T13:08:46;94885.47;;;9.70;48.81
9676;BME280;4876;42.656;23.292;2024-02-21T13:11:12;94875.97;;;9.82;47.05
9676;BME280;4876;42.656;23.292;2024-02-21T13:13:38;94868.88;;;9.60;48.63
9676;BME280;4876;42.656;23.292;2024-02-21T13:16:04;94868.28;;;9.52;50.78
9676;BME280;4876;42.656;23.292;2024-02-21T13:18:29;94864.66;;;9.40;52.28
9676;BME280;4876;42.656;23.292;2024-02-21T13:20:55;94852.22;;;9.12;52.74